Time;durP1;ratioP1;P1;durP2;ratioP2;P2;SDS_P1;SDS_P2;PMS_P1;PMS_P2;Temp;Humidity;BMP_temperature;BMP_pressure;BME280_temperature;BME280_humidity;BME280_pressure;Samples;Min_cycle;Max_cycle;Signal;HPM_P1;HPM_P2
2021/12/11 00:01:40;;;;;;;0.75;0.73;;;;;;;;;;5075961;28;20212;-68
2021/12/11 00:04:08;;;;;;;0.60;0.60;;;;;;;;;;5075944;28;20300;-64
2021/12/11 00:06:39;;;;;;;0.82;0.70;;;;;;;;;;5075899;28;20226;-65
2021/12/11 00:09:10;;;;;;;0.80;0.80;;;;;;;;;;5076409;28;20215;-65
2021/12/11 00:11:38;;;;;;;0.60;0.60;;;;;;;;;;5075797;28;20219;-65
2021/12/11 00:14:06;;;;;;;0.82;0.80;;;;;;;;;;5076095;28;20211;-66
2021/12/11 00:16:36;;;;;;;0.88;0.88;;;;;;;;;;5075514;28;20213;-65
2021/12/11 00:19:05;;;;;;;0.70;0.70;;;;;;;;;;5076364;28;20216;-66
2021/12/11 00:21:32;;;;;;;0.70;0.70;;;;;;;;;;5075622;28;20243;-66
2021/12/11 00:24:02;;;;;;;0.73;0.73;;;;;;;;;;5075969;28;20536;-67
2021/12/11 00:26:30;;;;;;;0.80;0.80;;;;;;;;;;5076185;28;20208;-68
2021/12/11 00:28:58;;;;;;;0.70;0.70;;;;;;;;;;5076245;28;20201;-67
2021/12/11 00:31:26;;;;;;;1.13;0.75;;;;;;;;;;5075639;28;20215;-67
2021/12/11 00:33:55;;;;;;;1.00;0.70;;;;;;;;;;5076165;28;20279;-67
2021/12/11 00:36:23;;;;;;;2.05;0.85;;;;;;;;;;5075177;28;20396;-67
2021/12/11 00:38:52;;;;;;;0.70;0.70;;;;;;;;;;5076342;28;20217;-68
2021/12/11 00:41:20;;;;;;;0.70;0.70;;;;;;;;;;5076004;28;20224;-68
2021/12/11 00:43:48;;;;;;;0.80;0.80;;;;;;;;;;5090588;28;20224;-66
2021/12/11 00:46:17;;;;;;;1.23;0.80;;;;;;;;;;5095388;28;20633;-66
2021/12/11 00:48:44;;;;;;;0.75;0.75;;;;;;;;;;5096211;28;20467;-66
2021/12/11 00:51:13;;;;;;;0.82;0.77;;;;;;;;;;5093403;28;20208;-67
2021/12/11 00:53:42;;;;;;;0.82;0.80;;;;;;;;;;5075612;28;20535;-65
2021/12/11 00:56:10;;;;;;;0.80;0.75;;;;;;;;;;5075451;28;20208;-65
2021/12/11 00:58:38;;;;;;;1.92;0.60;;;;;;;;;;5075885;28;20208;-65
2021/12/11 01:01:13;;;;;;;1.67;0.60;;;;;;;;;;5075632;28;20262;-65
2021/12/11 01:03:42;;;;;;;1.02;0.93;;;;;;;;;;5075388;28;20227;-65
2021/12/11 01:06:11;;;;;;;1.92;0.70;;;;;;;;;;5075197;28;20449;-65
2021/12/11 01:08:40;;;;;;;0.70;0.70;;;;;;;;;;5075878;28;20244;-65
2021/12/11 01:11:10;;;;;;;0.85;0.60;;;;;;;;;;5075956;28;20214;-65
2021/12/11 01:13:42;;;;;;;0.93;0.93;;;;;;;;;;5074886;28;20216;-65
2021/12/11 01:16:13;;;;;;;0.70;0.70;;;;;;;;;;5078433;28;20215;-65
2021/12/11 01:18:41;;;;;;;1.85;0.77;;;;;;;;;;5080078;28;20208;-65
2021/12/11 01:21:27;;;;;;;0.73;0.60;;;;;;;;;;5079663;28;20209;-66
2021/12/11 01:24:09;;;;;;;1.20;0.70;;;;;;;;;;5078836;28;20224;-66
2021/12/11 01:26:37;;;;;;;1.88;0.60;;;;;;;;;;5078945;28;20208;-66
2021/12/11 01:29:04;;;;;;;0.73;0.70;;;;;;;;;;5079460;28;20208;-68
2021/12/11 01:31:31;;;;;;;0.65;0.65;;;;;;;;;;5079353;28;20525;-68
2021/12/11 01:33:58;;;;;;;0.95;0.80;;;;;;;;;;5079047;28;20566;-67
2021/12/11 01:36:25;;;;;;;1.92;0.90;;;;;;;;;;5097011;28;20291;-66
2021/12/11 01:38:54;;;;;;;1.08;1.08;;;;;;;;;;5099841;28;20374;-66
2021/12/11 01:41:22;;;;;;;1.02;1.02;;;;;;;;;;5099514;28;20228;-66
2021/12/11 01:43:51;;;;;;;1.30;1.30;;;;;;;;;;5099322;28;20412;-66
2021/12/11 01:46:20;;;;;;;1.00;1.00;;;;;;;;;;5098178;28;20323;-66
2021/12/11 01:48:49;;;;;;;1.00;1.00;;;;;;;;;;5099535;28;20295;-65
2021/12/11 01:51:18;;;;;;;1.20;1.08;;;;;;;;;;5095739;28;20201;-65
2021/12/11 01:53:46;;;;;;;1.10;1.00;;;;;;;;;;5078891;28;20216;-66
2021/12/11 01:56:15;;;;;;;1.00;1.00;;;;;;;;;;5077816;28;20682;-66
2021/12/11 01:58:49;;;;;;;0.88;0.88;;;;;;;;;;5079106;28;20248;-67
2021/12/11 02:01:18;;;;;;;1.10;0.60;;;;;;;;;;5078794;28;20214;-68
2021/12/11 02:03:46;;;;;;;0.50;0.50;;;;;;;;;;5078538;28;20205;-68
2021/12/11 02:06:13;;;;;;;0.63;0.63;;;;;;;;;;5077838;28;20214;-68
2021/12/11 02:08:41;;;;;;;0.60;0.60;;;;;;;;;;5080191;28;20208;-68
2021/12/11 02:11:10;;;;;;;0.40;0.40;;;;;;;;;;5081717;28;20204;-68
2021/12/11 02:13:42;;;;;;;0.50;0.50;;;;;;;;;;5081336;28;20512;-68
2021/12/11 02:16:16;;;;;;;0.60;0.60;;;;;;;;;;5080183;28;20208;-68
2021/12/11 02:18:46;;;;;;;0.80;0.80;;;;;;;;;;5060979;28;20493;-68
2021/12/11 02:21:15;;;;;;;0.70;0.70;;;;;;;;;;5060448;28;20209;-68
2021/12/11 02:23:45;;;;;;;0.63;0.63;;;;;;;;;;5061063;28;20535;-68
2021/12/11 02:26:14;;;;;;;0.70;0.70;;;;;;;;;;5059769;28;20263;-68
2021/12/11 02:28:44;;;;;;;0.80;0.80;;;;;;;;;;5083030;28;20280;-68
2021/12/11 02:31:13;;;;;;;1.10;1.10;;;;;;;;;;5076157;28;20213;-68
2021/12/11 02:33:46;;;;;;;0.73;0.73;;;;;;;;;;5077909;28;20223;-67
2021/12/11 02:36:14;;;;;;;0.75;0.75;;;;;;;;;;5077397;28;20208;-66
2021/12/11 02:38:44;;;;;;;0.73;0.73;;;;;;;;;;5077893;28;20279;-66
2021/12/11 02:41:14;;;;;;;0.70;0.70;;;;;;;;;;5080794;28;20287;-67
2021/12/11 02:43:42;;;;;;;0.77;0.77;;;;;;;;;;5080082;28;20230;-68
2021/12/11 02:46:11;;;;;;;0.60;0.60;;;;;;;;;;5079636;28;20477;-68
2021/12/11 02:48:38;;;;;;;0.70;0.70;;;;;;;;;;5080478;28;20212;-68
2021/12/11 02:51:08;;;;;;;0.50;0.50;;;;;;;;;;5074445;28;20212;-65
2021/12/11 02:53:36;;;;;;;0.70;0.70;;;;;;;;;;5057839;28;20513;-65
2021/12/11 02:56:05;;;;;;;0.40;0.40;;;;;;;;;;5066750;28;20210;-67
2021/12/11 02:58:36;;;;;;;0.60;0.60;;;;;;;;;;5098210;28;20519;-66
2021/12/11 03:01:05;;;;;;;0.70;0.70;;;;;;;;;;5098043;28;20192;-66
2021/12/11 03:03:35;;;;;;;1.17;0.68;;;;;;;;;;5097415;28;20242;-66
2021/12/11 03:06:07;;;;;;;0.70;0.70;;;;;;;;;;5097075;28;20226;-67
2021/12/11 03:08:35;;;;;;;0.50;0.50;;;;;;;;;;5097830;28;20207;-67
2021/12/11 03:11:04;;;;;;;0.60;0.60;;;;;;;;;;5097576;28;20425;-68
2021/12/11 03:13:34;;;;;;;0.60;0.60;;;;;;;;;;5097794;28;20416;-68
2021/12/11 03:16:01;;;;;;;0.80;0.80;;;;;;;;;;5096755;28;20266;-67
2021/12/11 03:18:29;;;;;;;0.80;0.80;;;;;;;;;;5097691;28;20389;-68
2021/12/11 03:20:55;;;;;;;1.00;1.00;;;;;;;;;;5097322;28;20203;-68
2021/12/11 03:23:22;;;;;;;0.98;0.98;;;;;;;;;;5096855;28;20284;-66
2021/12/11 03:25:49;;;;;;;1.10;1.10;;;;;;;;;;5096169;28;20227;-66
2021/12/11 03:28:16;;;;;;;0.90;0.90;;;;;;;;;;5097740;28;20209;-67
2021/12/11 03:30:56;;;;;;;1.08;1.08;;;;;;;;;;5098343;28;20274;-65
2021/12/11 03:33:25;;;;;;;1.25;1.15;;;;;;;;;;5097496;28;20410;-65
2021/12/11 03:35:52;;;;;;;0.90;0.90;;;;;;;;;;5096300;28;20203;-65
2021/12/11 03:38:18;;;;;;;0.90;0.90;;;;;;;;;;5095736;28;20575;-66
2021/12/11 03:40:46;;;;;;;1.10;1.10;;;;;;;;;;5096454;28;20215;-66
2021/12/11 03:43:18;;;;;;;1.17;1.17;;;;;;;;;;5097087;28;20207;-66
2021/12/11 03:45:46;;;;;;;1.70;1.25;;;;;;;;;;5096506;28;20477;-65
2021/12/11 03:48:14;;;;;;;1.50;1.50;;;;;;;;;;5097118;28;20519;-65
2021/12/11 03:50:42;;;;;;;1.23;1.23;;;;;;;;;;5096798;28;20222;-66
2021/12/11 03:53:09;;;;;;;1.65;1.30;;;;;;;;;;5077284;28;20530;-66
2021/12/11 03:55:37;;;;;;;1.40;1.17;;;;;;;;;;5075615;28;20441;-66
2021/12/11 03:58:05;;;;;;;1.05;0.90;;;;;;;;;;5076447;28;20543;-66
2021/12/11 04:00:32;;;;;;;1.48;1.48;;;;;;;;;;5076512;28;20208;-68
2021/12/11 04:03:03;;;;;;;1.17;1.17;;;;;;;;;;5076526;28;20410;-68
2021/12/11 04:05:31;;;;;;;1.45;1.40;;;;;;;;;;5075070;28;20269;-65
2021/12/11 04:07:59;;;;;;;1.65;1.55;;;;;;;;;;5076523;28;20208;-65
2021/12/11 04:10:27;;;;;;;1.30;1.30;;;;;;;;;;5076870;28;20204;-68
2021/12/11 04:12:54;;;;;;;2.10;2.00;;;;;;;;;;5079627;28;20239;-68
2021/12/11 04:15:21;;;;;;;1.73;1.70;;;;;;;;;;5078758;28;20448;-68
2021/12/11 04:17:47;;;;;;;1.73;1.73;;;;;;;;;;5079479;28;20223;-68
2021/12/11 04:20:15;;;;;;;1.90;1.80;;;;;;;;;;5078695;28;20416;-68
2021/12/11 04:22:42;;;;;;;1.45;1.45;;;;;;;;;;5077028;28;20524;-68
2021/12/11 04:25:11;;;;;;;1.70;1.70;;;;;;;;;;5078150;28;20333;-68
2021/12/11 04:27:37;;;;;;;1.95;1.95;;;;;;;;;;5079361;28;20512;-68
2021/12/11 04:30:04;;;;;;;1.73;1.73;;;;;;;;;;5079210;28;20215;-68
2021/12/11 04:32:33;;;;;;;1.95;1.95;;;;;;;;;;5076123;28;20520;-68
2021/12/11 04:35:00;;;;;;;1.52;1.52;;;;;;;;;;5075173;28;20214;-68
2021/12/11 04:37:29;;;;;;;2.20;2.20;;;;;;;;;;5075504;28;20246;-68
2021/12/11 04:40:01;;;;;;;2.13;2.03;;;;;;;;;;5076023;28;20208;-65
2021/12/11 04:42:41;;;;;;;1.70;1.70;;;;;;;;;;5075684;28;20270;-65
2021/12/11 04:45:09;;;;;;;2.15;2.00;;;;;;;;;;5074778;28;20224;-66
2021/12/11 04:47:42;;;;;;;2.03;2.03;;;;;;;;;;5076093;28;20216;-66
2021/12/11 04:50:18;;;;;;;2.13;2.03;;;;;;;;;;5081660;28;20242;-66
2021/12/11 04:52:54;;;;;;;2.42;2.33;;;;;;;;;;5072943;28;20204;-67
2021/12/11 04:55:32;;;;;;;2.10;2.10;;;;;;;;;;5084533;28;20227;-68
2021/12/11 04:58:11;;;;;;;2.47;2.38;;;;;;;;;;5085223;28;20399;-68
2021/12/11 05:00:49;;;;;;;2.20;2.10;;;;;;;;;;5082435;28;20207;-68
2021/12/11 05:06:25;;;;;;;2.40;2.40;;;;;;;;;;5070528;28;20220;-68
2021/12/11 05:11:40;;;;;;;2.72;2.63;;;;;;;;;;5082541;28;20210;-65
2021/12/11 05:14:09;;;;;;;3.10;3.00;;;;;;;;;;5082446;28;20424;-65
2021/12/11 05:16:35;;;;;;;3.42;3.22;;;;;;;;;;5081417;28;20208;-65
2021/12/11 05:19:02;;;;;;;3.08;2.97;;;;;;;;;;5082198;28;20216;-65
2021/12/11 05:21:29;;;;;;;2.67;2.67;;;;;;;;;;5083691;28;20208;-67
2021/12/11 05:23:56;;;;;;;2.78;2.67;;;;;;;;;;5085345;28;20219;-67
2021/12/11 05:26:23;;;;;;;3.50;3.40;;;;;;;;;;5084725;28;20243;-67
2021/12/11 05:28:50;;;;;;;3.53;3.42;;;;;;;;;;5085529;28;20208;-68
2021/12/11 05:31:18;;;;;;;4.03;3.83;;;;;;;;;;5082335;28;20230;-68
2021/12/11 05:33:45;;;;;;;3.55;3.45;;;;;;;;;;5085221;28;20201;-68
2021/12/11 05:36:13;;;;;;;3.60;3.40;;;;;;;;;;5085161;28;20205;-68
2021/12/11 05:38:39;;;;;;;3.22;3.13;;;;;;;;;;5081973;28;20635;-65
2021/12/11 05:41:08;;;;;;;3.58;3.38;;;;;;;;;;5081959;28;20254;-65
2021/12/11 05:43:35;;;;;;;3.15;2.92;;;;;;;;;;5081919;28;20208;-65
2021/12/11 05:46:01;;;;;;;3.58;3.47;;;;;;;;;;5081130;28;20234;-65
2021/12/11 05:48:30;;;;;;;3.63;3.42;;;;;;;;;;5082320;28;20488;-65
2021/12/11 05:51:00;;;;;;;4.25;4.15;;;;;;;;;;5081008;28;20196;-65
2021/12/11 05:53:28;;;;;;;4.10;3.90;;;;;;;;;;5061940;28;20212;-65
2021/12/11 05:55:56;;;;;;;4.15;3.90;;;;;;;;;;5061190;28;20196;-65
2021/12/11 05:58:35;;;;;;;4.03;3.80;;;;;;;;;;5062335;28;20216;-66
2021/12/11 06:01:02;;;;;;;4.10;3.90;;;;;;;;;;5059032;28;20216;-66
2021/12/11 06:03:30;;;;;;;3.70;3.60;;;;;;;;;;5058688;28;20209;-66
2021/12/11 06:05:58;;;;;;;3.90;3.80;;;;;;;;;;5057944;28;20225;-65
2021/12/11 06:08:25;;;;;;;4.32;4.13;;;;;;;;;;5077900;28;20544;-67
2021/12/11 06:10:52;;;;;;;5.05;4.75;;;;;;;;;;5080983;28;20430;-67
2021/12/11 06:13:18;;;;;;;4.85;4.65;;;;;;;;;;5082423;28;20217;-67
2021/12/11 06:15:45;;;;;;;5.82;5.30;;;;;;;;;;5078382;28;20211;-69
2021/12/11 06:18:17;;;;;;;4.90;4.70;;;;;;;;;;5078534;28;20208;-69
2021/12/11 06:20:47;;;;;;;4.93;4.63;;;;;;;;;;5074472;28;20307;-68
2021/12/11 06:23:13;;;;;;;4.10;4.00;;;;;;;;;;5062902;28;20516;-68
2021/12/11 06:25:40;;;;;;;4.20;4.00;;;;;;;;;;5057174;28;20228;-68
2021/12/11 06:28:07;;;;;;;4.18;3.92;;;;;;;;;;5058107;28;20437;-68
2021/12/11 06:30:34;;;;;;;4.22;4.07;;;;;;;;;;5073977;28;20216;-68
2021/12/11 06:33:01;;;;;;;4.15;3.95;;;;;;;;;;5091811;28;20212;-68
2021/12/11 06:35:29;;;;;;;3.95;3.85;;;;;;;;;;5099986;28;20245;-68
2021/12/11 06:37:57;;;;;;;4.05;3.90;;;;;;;;;;5097605;28;20207;-66
2021/12/11 06:40:25;;;;;;;4.22;4.03;;;;;;;;;;5097954;28;20567;-65
2021/12/11 06:42:52;;;;;;;4.10;4.00;;;;;;;;;;5098506;28;20269;-65
2021/12/11 06:45:19;;;;;;;4.07;3.97;;;;;;;;;;5096913;28;20294;-68
2021/12/11 06:47:45;;;;;;;4.20;4.00;;;;;;;;;;5098188;28;20208;-68
2021/12/11 06:50:12;;;;;;;3.72;3.63;;;;;;;;;;5097518;28;20533;-68
2021/12/11 06:52:39;;;;;;;3.60;3.50;;;;;;;;;;5082609;28;20413;-59
2021/12/11 06:55:07;;;;;;;4.50;4.30;;;;;;;;;;5078213;28;20409;-56
2021/12/11 06:57:34;;;;;;;4.13;3.80;;;;;;;;;;5077765;28;20235;-56
2021/12/11 07:00:00;;;;;;;4.70;4.40;;;;;;;;;;5078005;28;20238;-55
2021/12/11 07:02:27;;;;;;;4.75;4.55;;;;;;;;;;5077760;28;20404;-58
2021/12/11 07:04:55;;;;;;;4.80;4.60;;;;;;;;;;5078206;28;20209;-60
2021/12/11 07:07:24;;;;;;;5.40;5.00;;;;;;;;;;5078877;28;20224;-60
2021/12/11 07:09:52;;;;;;;5.60;5.30;;;;;;;;;;5079059;28;20275;-59
2021/12/11 07:12:21;;;;;;;5.68;5.38;;;;;;;;;;5078793;28;20208;-61
2021/12/11 07:14:48;;;;;;;6.70;6.28;;;;;;;;;;5077299;28;20302;-56
2021/12/11 07:17:15;;;;;;;5.85;5.45;;;;;;;;;;5077358;28;20566;-56
2021/12/11 07:19:43;;;;;;;7.38;6.78;;;;;;;;;;5077489;28;20548;-56
2021/12/11 07:22:10;;;;;;;7.55;6.95;;;;;;;;;;5077666;28;20529;-56
2021/12/11 07:24:39;;;;;;;8.10;7.30;;;;;;;;;;5076623;28;20450;-57
2021/12/11 07:27:08;;;;;;;7.68;6.72;;;;;;;;;;5077100;28;20567;-56
2021/12/11 07:29:37;;;;;;;6.97;6.38;;;;;;;;;;5077263;28;20414;-57
2021/12/11 07:32:04;;;;;;;8.43;7.82;;;;;;;;;;5077380;28;20211;-57
2021/12/11 07:34:30;;;;;;;7.30;6.80;;;;;;;;;;5076249;28;20208;-57
2021/12/11 07:36:58;;;;;;;7.35;6.65;;;;;;;;;;5076935;28;20201;-56
2021/12/11 07:39:25;;;;;;;7.63;7.03;;;;;;;;;;5076962;28;20452;-57
2021/12/11 07:41:52;;;;;;;7.40;6.78;;;;;;;;;;5076693;28;20238;-56
2021/12/11 07:44:19;;;;;;;8.18;7.35;;;;;;;;;;5076700;28;20208;-57
2021/12/11 07:46:47;;;;;;;8.32;7.53;;;;;;;;;;5074320;28;20228;-56
2021/12/11 07:49:14;;;;;;;8.05;7.47;;;;;;;;;;5076265;28;20211;-59
2021/12/11 07:51:41;;;;;;;8.23;7.43;;;;;;;;;;5068663;28;20209;-54
2021/12/11 07:54:08;;;;;;;9.18;8.27;;;;;;;;;;5056404;28;20481;-55
2021/12/11 07:56:36;;;;;;;8.35;7.70;;;;;;;;;;5055900;28;20552;-55
2021/12/11 07:59:04;;;;;;;9.10;8.40;;;;;;;;;;5056699;28;20399;-57
2021/12/11 08:01:32;;;;;;;9.38;8.48;;;;;;;;;;5055517;28;20833;-57
2021/12/11 08:04:01;;;;;;;9.93;9.02;;;;;;;;;;5055335;28;20499;-55
2021/12/11 08:06:28;;;;;;;10.90;9.90;;;;;;;;;;5054445;28;20303;-56
2021/12/11 08:08:55;;;;;;;10.15;9.32;;;;;;;;;;5055575;28;20602;-55
2021/12/11 08:11:22;;;;;;;9.73;8.82;;;;;;;;;;5055547;28;20217;-61
2021/12/11 08:13:50;;;;;;;9.82;9.02;;;;;;;;;;5056546;28;20205;-60
2021/12/11 08:16:21;;;;;;;10.35;9.45;;;;;;;;;;5056308;28;20211;-60
2021/12/11 08:18:50;;;;;;;10.23;9.15;;;;;;;;;;5056803;28;20200;-59
2021/12/11 08:21:18;;;;;;;11.30;10.20;;;;;;;;;;5066751;28;20278;-60
2021/12/11 08:23:47;;;;;;;8.68;8.00;;;;;;;;;;5065206;28;20216;-58
2021/12/11 08:26:16;;;;;;;10.63;9.57;;;;;;;;;;5073538;28;20248;-59
2021/12/11 08:28:43;;;;;;;11.65;9.65;;;;;;;;;;5077281;28;20268;-59
2021/12/11 08:31:11;;;;;;;10.95;9.85;;;;;;;;;;5076146;28;20236;-60
2021/12/11 08:33:37;;;;;;;9.85;8.82;;;;;;;;;;5075594;28;20218;-59
2021/12/11 08:36:04;;;;;;;12.38;9.07;;;;;;;;;;5074545;28;20369;-59
2021/12/11 08:38:32;;;;;;;10.70;9.48;;;;;;;;;;5074714;28;20520;-59
2021/12/11 08:41:01;;;;;;;10.50;9.48;;;;;;;;;;5070824;28;20247;-60
2021/12/11 08:43:29;;;;;;;10.45;9.45;;;;;;;;;;5062755;28;20196;-57
2021/12/11 08:46:08;;;;;;;10.85;9.85;;;;;;;;;;5063802;28;20220;-57
2021/12/11 08:48:36;;;;;;;11.00;9.90;;;;;;;;;;5063055;28;20508;-57
2021/12/11 08:51:05;;;;;;;12.50;10.95;;;;;;;;;;5065389;28;20493;-57
2021/12/11 08:53:33;;;;;;;11.32;10.23;;;;;;;;;;5065451;28;20213;-55
2021/12/11 08:56:00;;;;;;;14.07;10.95;;;;;;;;;;5064243;28;20346;-55
2021/12/11 08:58:27;;;;;;;11.52;9.82;;;;;;;;;;5063043;28;20205;-56
2021/12/11 09:00:56;;;;;;;12.90;10.65;;;;;;;;;;5064560;28;20432;-60
2021/12/11 09:03:25;;;;;;;11.88;10.65;;;;;;;;;;5065376;28;20206;-60
2021/12/11 09:05:53;;;;;;;18.05;14.02;;;;;;;;;;5062742;28;20259;-60
2021/12/11 09:08:21;;;;;;;11.73;10.10;;;;;;;;;;5063220;28;20266;-54
2021/12/11 09:10:52;;;;;;;11.05;10.02;;;;;;;;;;5065010;28;20201;-53
2021/12/11 09:13:22;;;;;;;11.23;10.10;;;;;;;;;;5065036;28;20216;-54
2021/12/11 09:15:51;;;;;;;11.13;10.02;;;;;;;;;;5064553;28;20250;-56
2021/12/11 09:18:19;;;;;;;11.85;10.48;;;;;;;;;;5064059;28;20209;-56
2021/12/11 09:20:48;;;;;;;12.63;10.57;;;;;;;;;;5068910;28;20209;-56
2021/12/11 09:23:24;;;;;;;12.27;10.80;;;;;;;;;;5074685;28;20254;-57
2021/12/11 09:25:54;;;;;;;11.32;10.25;;;;;;;;;;5073491;28;20208;-60
2021/12/11 09:28:22;;;;;;;13.80;10.65;;;;;;;;;;5074699;28;20208;-61
2021/12/11 09:30:51;;;;;;;11.65;10.60;;;;;;;;;;5074948;28;20545;-60
2021/12/11 09:33:20;;;;;;;13.73;11.18;;;;;;;;;;5074486;28;20326;-61
2021/12/11 09:35:49;;;;;;;13.02;10.50;;;;;;;;;;5070951;28;20800;-60
2021/12/11 09:38:18;;;;;;;11.32;10.23;;;;;;;;;;5077640;28;20232;-62
2021/12/11 09:40:54;;;;;;;12.15;9.90;;;;;;;;;;5094831;28;20211;-58
2021/12/11 09:43:42;;;;;;;12.32;10.90;;;;;;;;;;5098065;28;20207;-58
2021/12/11 09:46:11;;;;;;;10.82;9.82;;;;;;;;;;5091888;28;20227;-57
2021/12/11 09:48:39;;;;;;;11.98;10.43;;;;;;;;;;5098480;28;20329;-60
2021/12/11 09:51:11;;;;;;;12.88;10.80;;;;;;;;;;5098492;28;20199;-60
2021/12/11 09:53:39;;;;;;;12.38;10.75;;;;;;;;;;5098233;28;20257;-60
2021/12/11 09:56:09;;;;;;;14.27;10.85;;;;;;;;;;5097378;28;20537;-60
2021/12/11 09:58:37;;;;;;;12.15;10.80;;;;;;;;;;5098501;28;20261;-62
2021/12/11 10:01:06;;;;;;;13.45;10.30;;;;;;;;;;5099554;28;20540;-61
2021/12/11 10:03:38;;;;;;;13.48;10.02;;;;;;;;;;5098774;28;20260;-60
2021/12/11 10:06:12;;;;;;;11.20;10.05;;;;;;;;;;5098299;28;20242;-59
2021/12/11 10:08:42;;;;;;;10.25;9.25;;;;;;;;;;5098327;28;20523;-60
2021/12/11 10:11:11;;;;;;;11.23;9.95;;;;;;;;;;5098877;28;20249;-59
2021/12/11 10:13:40;;;;;;;11.15;10.07;;;;;;;;;;5096214;28;20328;-59
2021/12/11 10:16:07;;;;;;;11.52;10.40;;;;;;;;;;5097104;28;20307;-56
2021/12/11 10:18:35;;;;;;;11.57;8.85;;;;;;;;;;5080070;28;20212;-55
2021/12/11 10:21:04;;;;;;;9.68;8.77;;;;;;;;;;5077409;28;20209;-56
2021/12/11 10:23:32;;;;;;;10.65;9.65;;;;;;;;;;5077319;28;20240;-56
2021/12/11 10:26:00;;;;;;;10.70;9.60;;;;;;;;;;5076332;28;20296;-56
2021/12/11 10:28:28;;;;;;;10.45;8.50;;;;;;;;;;5077432;28;20228;-57
2021/12/11 10:30:57;;;;;;;9.48;8.27;;;;;;;;;;5077024;28;20573;-56
2021/12/11 10:33:27;;;;;;;8.98;6.80;;;;;;;;;;5076994;28;20353;-56
2021/12/11 10:35:57;;;;;;;10.20;9.20;;;;;;;;;;5076158;28;20207;-56
2021/12/11 10:38:24;;;;;;;8.43;7.72;;;;;;;;;;5077050;28;20243;-55
2021/12/11 10:40:54;;;;;;;9.32;8.38;;;;;;;;;;5076895;28;20216;-53
2021/12/11 10:43:23;;;;;;;9.20;8.30;;;;;;;;;;5076976;28;20249;-56
2021/12/11 10:45:51;;;;;;;7.85;7.03;;;;;;;;;;5076155;28;20270;-55
2021/12/11 10:48:19;;;;;;;8.60;7.75;;;;;;;;;;5076330;28;20224;-55
2021/12/11 10:50:48;;;;;;;10.00;8.02;;;;;;;;;;5076931;28;20405;-54
2021/12/11 10:53:19;;;;;;;7.72;6.90;;;;;;;;;;5076930;28;20561;-55
2021/12/11 10:55:46;;;;;;;7.53;6.93;;;;;;;;;;5075952;28;20231;-55
2021/12/11 10:58:15;;;;;;;7.40;5.90;;;;;;;;;;5076474;28;20205;-55
2021/12/11 11:00:45;;;;;;;7.25;6.68;;;;;;;;;;5077392;28;20434;-60
2021/12/11 11:03:11;;;;;;;7.13;6.53;;;;;;;;;;5077214;28;20303;-60
2021/12/11 11:05:39;;;;;;;7.43;6.65;;;;;;;;;;5076046;28;20209;-59
2021/12/11 11:08:06;;;;;;;6.97;6.30;;;;;;;;;;5076478;28;20259;-60
2021/12/11 11:10:36;;;;;;;7.45;5.47;;;;;;;;;;5076737;28;20200;-60
2021/12/11 11:13:05;;;;;;;6.28;5.78;;;;;;;;;;5077023;28;20443;-59
2021/12/11 11:15:32;;;;;;;5.30;4.80;;;;;;;;;;5075687;28;20226;-60
2021/12/11 11:17:59;;;;;;;5.47;5.10;;;;;;;;;;5063657;28;20232;-59
2021/12/11 11:20:28;;;;;;;5.45;5.00;;;;;;;;;;5056492;28;20215;-59
2021/12/11 11:22:55;;;;;;;5.05;4.65;;;;;;;;;;5056848;28;20201;-58
2021/12/11 11:25:23;;;;;;;5.07;4.63;;;;;;;;;;5055944;28;20573;-58
2021/12/11 11:27:56;;;;;;;4.85;4.45;;;;;;;;;;5056807;28;20468;-59
2021/12/11 11:30:27;;;;;;;4.60;4.30;;;;;;;;;;5057472;28;20215;-57
2021/12/11 11:32:54;;;;;;;5.47;5.07;;;;;;;;;;5058158;28;20308;-58
2021/12/11 11:35:24;;;;;;;5.70;5.22;;;;;;;;;;5056131;28;20216;-57
2021/12/11 11:37:52;;;;;;;4.25;3.95;;;;;;;;;;5058405;28;20205;-58
2021/12/11 11:40:21;;;;;;;4.97;4.60;;;;;;;;;;5058975;28;20259;-58
2021/12/11 11:42:47;;;;;;;5.57;4.63;;;;;;;;;;5058959;28;20240;-58
2021/12/11 11:45:16;;;;;;;5.40;4.78;;;;;;;;;;5057871;28;20221;-58
2021/12/11 11:47:43;;;;;;;8.75;7.55;;;;;;;;;;5056768;28;20224;-59
2021/12/11 11:50:11;;;;;;;4.95;4.55;;;;;;;;;;5056683;28;20209;-59
2021/12/11 11:52:38;;;;;;;4.85;4.40;;;;;;;;;;5058103;28;20212;-58
2021/12/11 11:55:08;;;;;;;5.13;4.57;;;;;;;;;;5056683;28;20276;-59
2021/12/11 11:57:36;;;;;;;6.13;5.55;;;;;;;;;;5056032;28;20486;-58
2021/12/11 12:00:06;;;;;;;6.80;6.10;;;;;;;;;;5055870;28;20209;-54
2021/12/11 12:02:35;;;;;;;7.22;6.35;;;;;;;;;;5055316;28;20209;-54
2021/12/11 12:05:02;;;;;;;7.28;6.53;;;;;;;;;;5054823;28;20428;-58
2021/12/11 12:07:30;;;;;;;7.07;6.25;;;;;;;;;;5054501;28;20354;-58
2021/12/11 12:10:00;;;;;;;5.78;5.25;;;;;;;;;;5056158;28;20209;-59
2021/12/11 12:12:26;;;;;;;4.97;4.53;;;;;;;;;;5073941;28;20214;-59
2021/12/11 12:14:54;;;;;;;4.40;3.92;;;;;;;;;;5075269;28;20215;-59
2021/12/11 12:17:22;;;;;;;4.20;3.90;;;;;;;;;;5069547;28;20403;-59
2021/12/11 12:19:51;;;;;;;4.28;3.90;;;;;;;;;;5075936;28;20211;-59
2021/12/11 12:22:18;;;;;;;4.00;3.70;;;;;;;;;;5097228;28;20199;-59
2021/12/11 12:24:47;;;;;;;4.20;3.63;;;;;;;;;;5097312;28;20214;-59
2021/12/11 12:27:15;;;;;;;5.65;4.93;;;;;;;;;;5097068;28;20244;-59
2021/12/11 12:29:42;;;;;;;5.00;4.53;;;;;;;;;;5096167;28;20230;-52
2021/12/11 12:32:11;;;;;;;3.83;3.50;;;;;;;;;;5095693;28;20262;-53
2021/12/11 12:34:38;;;;;;;4.45;4.05;;;;;;;;;;5094498;28;20546;-52
2021/12/11 12:37:07;;;;;;;4.85;4.45;;;;;;;;;;5094950;28;20438;-53
2021/12/11 12:39:38;;;;;;;4.68;4.32;;;;;;;;;;5095017;28;20215;-54
2021/12/11 12:42:16;;;;;;;4.70;3.90;;;;;;;;;;5095348;28;20492;-55
2021/12/11 12:44:43;;;;;;;4.55;4.20;;;;;;;;;;5094233;28;20291;-54
2021/12/11 12:47:12;;;;;;;5.47;4.00;;;;;;;;;;5094632;28;20253;-54
2021/12/11 12:49:40;;;;;;;4.45;4.05;;;;;;;;;;5095387;28;20385;-53
2021/12/11 12:52:10;;;;;;;5.10;4.70;;;;;;;;;;5095319;28;20516;-53
2021/12/11 12:54:36;;;;;;;7.80;5.38;;;;;;;;;;5094172;28;20221;-53
2021/12/11 12:57:11;;;;;;;7.38;4.45;;;;;;;;;;5094881;28;20207;-55
2021/12/11 12:59:39;;;;;;;4.65;4.20;;;;;;;;;;5094791;28;20208;-55
2021/12/11 13:02:07;;;;;;;5.65;5.25;;;;;;;;;;5095326;28;20515;-58
2021/12/11 13:04:36;;;;;;;5.97;4.15;;;;;;;;;;5094379;28;20519;-58
2021/12/11 13:07:07;;;;;;;4.03;3.83;;;;;;;;;;5096268;28;20196;-61
2021/12/11 13:09:41;;;;;;;4.47;4.10;;;;;;;;;;5064115;28;20209;-57
2021/12/11 13:12:10;;;;;;;4.65;4.25;;;;;;;;;;5059129;28;20268;-57
2021/12/11 13:14:38;;;;;;;5.30;4.80;;;;;;;;;;5058044;28;20240;-57
2021/12/11 13:17:06;;;;;;;6.25;4.97;;;;;;;;;;5063865;28;20447;-57
2021/12/11 13:19:35;;;;;;;5.32;4.82;;;;;;;;;;5078946;28;20208;-58
2021/12/11 13:22:06;;;;;;;4.53;4.22;;;;;;;;;;5078740;28;20280;-58
2021/12/11 13:24:33;;;;;;;4.35;3.97;;;;;;;;;;5077854;28;20212;-57
2021/12/11 13:27:06;;;;;;;5.80;4.93;;;;;;;;;;5078361;28;20219;-58
2021/12/11 13:29:34;;;;;;;5.50;5.00;;;;;;;;;;5078433;28;20224;-58
2021/12/11 13:32:02;;;;;;;6.57;5.20;;;;;;;;;;5078494;28;20274;-58
2021/12/11 13:34:29;;;;;;;4.50;4.20;;;;;;;;;;5077896;28;20326;-57
2021/12/11 13:36:56;;;;;;;6.25;4.38;;;;;;;;;;5078232;28;20208;-58
2021/12/11 13:39:23;;;;;;;5.20;4.70;;;;;;;;;;5077793;28;20736;-58
2021/12/11 13:41:59;;;;;;;4.97;4.55;;;;;;;;;;5078410;28;20218;-57
2021/12/11 13:44:28;;;;;;;5.65;4.97;;;;;;;;;;5077715;28;20391;-57
2021/12/11 13:46:55;;;;;;;5.53;5.05;;;;;;;;;;5078060;28;20244;-57
2021/12/11 13:49:22;;;;;;;5.50;5.07;;;;;;;;;;5077966;28;20231;-58
2021/12/11 13:51:49;;;;;;;5.35;4.90;;;;;;;;;;5078293;28;20378;-57
2021/12/11 13:54:16;;;;;;;6.28;5.68;;;;;;;;;;5077890;28;20208;-57
2021/12/11 13:56:44;;;;;;;7.88;6.88;;;;;;;;;;5076534;28;20231;-57
2021/12/11 13:59:12;;;;;;;6.05;5.45;;;;;;;;;;5077797;28;20536;-58
2021/12/11 14:01:41;;;;;;;6.85;6.22;;;;;;;;;;5077524;28;20212;-59
2021/12/11 14:04:09;;;;;;;5.63;5.22;;;;;;;;;;5077698;28;20396;-56
2021/12/11 14:06:37;;;;;;;11.50;5.15;;;;;;;;;;5077098;28;20204;-57
2021/12/11 14:09:06;;;;;;;5.63;4.22;;;;;;;;;;5077415;28;20228;-56
2021/12/11 14:11:34;;;;;;;4.35;3.95;;;;;;;;;;5077482;28;20208;-57
2021/12/11 14:14:01;;;;;;;5.72;4.25;;;;;;;;;;5077613;28;20467;-56
2021/12/11 14:16:28;;;;;;;5.13;4.72;;;;;;;;;;5076147;28;20457;-56
2021/12/11 14:18:56;;;;;;;6.38;5.88;;;;;;;;;;5057507;28;20205;-57
2021/12/11 14:21:23;;;;;;;4.68;4.38;;;;;;;;;;5056710;28;20209;-57
2021/12/11 14:23:51;;;;;;;5.57;5.07;;;;;;;;;;5057244;28;20231;-58
2021/12/11 14:26:22;;;;;;;11.35;5.78;;;;;;;;;;5056438;28;20215;-56
2021/12/11 14:28:48;;;;;;;5.20;4.80;;;;;;;;;;5057087;28;20484;-57
2021/12/11 14:31:17;;;;;;;9.05;8.10;;;;;;;;;;5057257;28;20209;-57
2021/12/11 14:33:44;;;;;;;10.35;8.88;;;;;;;;;;5056772;28;20209;-57
2021/12/11 14:36:14;;;;;;;10.50;8.65;;;;;;;;;;5056430;28;20215;-56
2021/12/11 14:38:41;;;;;;;10.70;6.05;;;;;;;;;;5057331;28;20342;-56
2021/12/11 14:41:08;;;;;;;6.07;5.47;;;;;;;;;;5056990;28;20309;-56
2021/12/11 14:43:36;;;;;;;5.90;5.38;;;;;;;;;;5056659;28;20208;-56
2021/12/11 14:46:05;;;;;;;5.63;5.13;;;;;;;;;;5055940;28;20295;-56
2021/12/11 14:48:32;;;;;;;6.78;4.60;;;;;;;;;;5057019;28;20468;-57
2021/12/11 14:51:00;;;;;;;5.03;4.40;;;;;;;;;;5057108;28;20271;-55
2021/12/11 14:53:32;;;;;;;5.60;4.97;;;;;;;;;;5057185;28;20201;-57
2021/12/11 14:55:59;;;;;;;6.00;5.03;;;;;;;;;;5056270;28;20209;-56